createdAt,value
2023-05-23T00:01:45.485Z,6.97
2023-05-23T00:04:31.538Z,6.57
2023-05-23T00:07:17.498Z,6.85
2023-05-23T00:10:04.512Z,6.35
2023-05-23T00:12:50.826Z,6.10
2023-05-23T00:15:41.684Z,6.68
2023-05-23T00:18:27.933Z,6.85
2023-05-23T00:21:14.127Z,6.68
2023-05-23T00:24:02.507Z,6.55
2023-05-23T00:26:48.799Z,6.55
2023-05-23T00:29:35.008Z,6.13
2023-05-23T00:32:21.032Z,5.85
2023-05-23T00:35:08.019Z,6.10
2023-05-23T00:37:55.605Z,6.18
2023-05-23T00:40:42.026Z,6.13
2023-05-23T00:43:29.539Z,6.20
2023-05-23T00:46:16.748Z,5.63
2023-05-23T00:49:03.416Z,6.00
2023-05-23T00:54:36.903Z,6.20
2023-05-23T01:00:10.190Z,5.32
2023-05-23T01:02:56.766Z,5.82
2023-05-23T01:05:44.504Z,6.32
2023-05-23T01:08:30.844Z,5.60
2023-05-23T01:11:37.672Z,5.63
2023-05-23T01:14:36.084Z,6.15
2023-05-23T01:20:26.510Z,5.85
2023-05-23T01:23:39.032Z,5.47
2023-05-23T01:27:07.144Z,6.13
2023-05-23T01:29:57.901Z,6.85
2023-05-23T01:32:45.263Z,5.90
2023-05-23T01:35:32.686Z,6.13
2023-05-23T01:38:19.107Z,6.47
2023-05-23T01:41:05.118Z,6.00
2023-05-23T01:43:51.379Z,6.20
2023-05-23T01:46:40.631Z,6.10
2023-05-23T01:49:27.668Z,6.88
2023-05-23T01:52:15.621Z,6.38
2023-05-23T01:55:09.821Z,5.85
2023-05-23T01:57:58.087Z,6.57
2023-05-23T02:00:44.330Z,6.03
2023-05-23T02:03:30.864Z,6.63
2023-05-23T02:06:17.370Z,6.13
2023-05-23T02:09:05.957Z,6.30
2023-05-23T02:11:51.859Z,6.40
2023-05-23T02:14:37.806Z,6.32
2023-05-23T02:17:24.333Z,6.30
2023-05-23T02:20:10.979Z,6.63
2023-05-23T02:22:56.889Z,6.70
2023-05-23T02:25:43.616Z,6.55
2023-05-23T02:28:29.824Z,6.43
2023-05-23T02:34:03.906Z,6.82
2023-05-23T02:36:49.939Z,6.63
2023-05-23T02:39:37.036Z,6.95
2023-05-23T02:42:23.391Z,6.82
2023-05-23T02:45:09.748Z,6.90
2023-05-23T02:47:56.254Z,7.10
2023-05-23T02:50:44.350Z,7.75
2023-05-23T02:53:30.672Z,7.25
2023-05-23T02:56:16.519Z,7.38
2023-05-23T02:59:02.438Z,7.47
2023-05-23T03:01:48.986Z,7.38
2023-05-23T03:04:35.163Z,8.40
2023-05-23T03:07:28.148Z,6.93
2023-05-23T03:10:15.061Z,7.43
2023-05-23T03:13:00.934Z,7.53
2023-05-23T03:18:33.426Z,7.28
2023-05-23T03:21:21.399Z,7.43
2023-05-23T03:24:07.305Z,8.10
2023-05-23T03:29:40.187Z,6.63
2023-05-23T03:35:12.969Z,7.65
2023-05-23T03:37:59.317Z,6.97
2023-05-23T03:40:45.740Z,7.63
2023-05-23T03:43:32.104Z,7.57
2023-05-23T03:46:19.056Z,7.80
2023-05-23T03:49:05.617Z,7.43
2023-05-23T03:51:51.716Z,7.63
2023-05-23T03:54:37.975Z,8.38
2023-05-23T04:00:12.678Z,8.18
2023-05-23T04:03:08.716Z,7.70
2023-05-23T04:05:55.135Z,7.63
2023-05-23T04:08:42.133Z,7.85
2023-05-23T04:11:28.539Z,7.85
2023-05-23T04:14:14.624Z,7.80
2023-05-23T04:17:01.648Z,7.57
2023-05-23T04:19:48.848Z,8.00
2023-05-23T04:22:35.316Z,8.45
2023-05-23T04:25:24.328Z,8.80
2023-05-23T04:28:34.422Z,7.70
2023-05-23T04:31:22.345Z,8.00
2023-05-23T04:34:09.768Z,7.97
2023-05-23T04:36:58.688Z,8.73
2023-05-23T04:39:47.232Z,7.70
2023-05-23T04:42:44.624Z,7.97
2023-05-23T04:45:42.396Z,8.07
2023-05-23T04:48:48.952Z,7.90
2023-05-23T04:51:35.375Z,8.60
2023-05-23T04:54:31.862Z,8.20
2023-05-23T04:57:20.968Z,8.40
2023-05-23T05:00:10.511Z,9.13
2023-05-23T05:02:57.662Z,8.70
2023-05-23T05:05:47.542Z,9.07
2023-05-23T05:08:35.007Z,10.15
2023-05-23T05:11:22.131Z,9.10
2023-05-23T05:14:08.229Z,8.82
2023-05-23T05:16:57.729Z,8.85
2023-05-23T05:19:49.710Z,8.75
2023-05-23T05:22:40.960Z,9.02
2023-05-23T05:25:31.889Z,8.98
2023-05-23T05:28:18.243Z,9.45
2023-05-23T05:31:10.219Z,8.93
2023-05-23T05:33:58.269Z,8.85
2023-05-23T05:36:48.618Z,8.50
2023-05-23T05:39:37.326Z,8.57
2023-05-23T05:42:25.269Z,9.43
2023-05-23T05:45:12.496Z,8.93
2023-05-23T05:48:00.703Z,9.05
2023-05-23T05:53:33.349Z,8.68
2023-05-23T05:56:20.802Z,8.70
2023-05-23T05:59:08.377Z,9.20
2023-05-23T06:01:55.811Z,9.18
2023-05-23T06:07:28.112Z,9.50
2023-05-23T06:10:14.453Z,10.48
2023-05-23T06:13:01.434Z,9.65
2023-05-23T06:15:47.876Z,10.45
2023-05-23T06:18:34.319Z,9.30
2023-05-23T06:21:20.668Z,9.55
2023-05-23T06:24:09.027Z,10.55
2023-05-23T06:26:55.136Z,11.52
2023-05-23T06:29:41.008Z,10.52
2023-05-23T06:35:14.047Z,10.75
2023-05-23T06:38:00.216Z,9.70
2023-05-23T06:40:46.423Z,9.95
2023-05-23T06:43:33.795Z,10.70
2023-05-23T06:46:32.865Z,10.75
2023-05-23T06:49:19.363Z,10.23
2023-05-23T06:52:06.384Z,10.75
2023-05-23T06:54:52.358Z,10.90
2023-05-23T07:00:24.855Z,9.23
2023-05-23T07:03:22.521Z,11.50
2023-05-23T07:06:09.984Z,10.65
2023-05-23T07:08:57.163Z,10.40
2023-05-23T07:11:44.614Z,11.25
2023-05-23T07:14:32.348Z,10.35
2023-05-23T07:17:19.007Z,10.32
2023-05-23T07:20:07.324Z,10.88
2023-05-23T07:22:57.353Z,10.63
2023-05-23T07:25:53.862Z,11.05
2023-05-23T07:28:45.561Z,9.93
2023-05-23T07:31:32.058Z,11.98
2023-05-23T07:34:19.180Z,11.10
2023-05-23T07:37:11.556Z,11.82
2023-05-23T07:40:02.553Z,11.13
2023-05-23T07:45:35.014Z,11.93
2023-05-23T07:48:21.586Z,10.98
2023-05-23T07:51:07.838Z,10.93
2023-05-23T07:53:53.788Z,10.73
2023-05-23T07:56:43.539Z,10.40
2023-05-23T07:59:30.297Z,10.65
2023-05-23T08:02:18.321Z,11.57
2023-05-23T08:05:05.448Z,10.35
2023-05-23T08:07:54.335Z,11.50
2023-05-23T08:10:40.998Z,11.32
2023-05-23T08:13:34.145Z,11.23
2023-05-23T08:16:46.455Z,11.32
2023-05-23T08:19:38.368Z,11.95
2023-05-23T08:25:11.646Z,11.20
2023-05-23T08:28:01.171Z,11.88
2023-05-23T08:31:00.872Z,11.75
2023-05-23T08:33:48.328Z,11.02
2023-05-23T08:36:37.056Z,11.02
2023-05-23T08:39:25.467Z,11.20
2023-05-23T08:42:19.485Z,11.00
2023-05-23T08:45:06.495Z,11.50
2023-05-23T08:47:54.182Z,10.88
2023-05-23T08:50:46.271Z,10.90
2023-05-23T08:53:33.770Z,11.95
2023-05-23T08:56:28.540Z,10.77
2023-05-23T08:59:17.091Z,11.68
2023-05-23T09:02:11.842Z,12.63
2023-05-23T09:04:59.639Z,11.25
2023-05-23T09:07:51.096Z,14.48
2023-05-23T09:10:37.906Z,11.40
2023-05-23T09:13:25.944Z,10.65
2023-05-23T09:16:13.328Z,11.60
2023-05-23T09:19:13.093Z,10.43
2023-05-23T09:22:03.828Z,10.30
2023-05-23T09:25:07.981Z,9.90
2023-05-23T09:27:56.593Z,10.52
2023-05-23T09:30:43.716Z,10.68
2023-05-23T09:33:50.357Z,10.25
2023-05-23T09:36:44.001Z,10.82
2023-05-23T09:39:30.544Z,10.88
2023-05-23T09:42:31.258Z,10.93
2023-05-23T09:45:18.674Z,10.68
2023-05-23T09:48:04.650Z,10.98
2023-05-23T09:50:51.512Z,10.98
2023-05-23T09:53:38.529Z,10.75
2023-05-23T09:56:26.579Z,10.98
2023-05-23T09:59:16.068Z,11.07
2023-05-23T10:02:06.648Z,11.13
2023-05-23T10:04:53.505Z,11.18
2023-05-23T10:07:40.241Z,11.55
2023-05-23T10:10:28.472Z,12.35
2023-05-23T10:13:15.031Z,10.70
2023-05-23T10:16:19.106Z,11.63
2023-05-23T10:19:13.383Z,10.52
2023-05-23T10:22:04.088Z,10.68
2023-05-23T10:24:51.123Z,11.52
2023-05-23T10:27:40.732Z,12.38
2023-05-23T10:30:27.588Z,12.10
2023-05-23T10:33:17.102Z,13.15
2023-05-23T10:36:14.893Z,11.85
2023-05-23T10:39:37.031Z,11.50
2023-05-23T10:42:36.250Z,10.85
2023-05-23T10:45:24.490Z,10.65
2023-05-23T10:48:41.060Z,9.93
2023-05-23T10:51:39.330Z,9.70
2023-05-23T10:57:16.652Z,8.07
2023-05-23T11:00:04.418Z,8.25
2023-05-23T11:02:59.872Z,8.95
2023-05-23T11:05:53.719Z,8.80
2023-05-23T11:08:48.495Z,9.27
2023-05-23T11:11:58.014Z,9.25
2023-05-23T11:14:47.049Z,9.60
2023-05-23T11:17:34.090Z,9.35
2023-05-23T11:20:24.547Z,9.27
2023-05-23T11:23:13.380Z,9.90
2023-05-23T11:25:59.320Z,8.93
2023-05-23T11:28:58.928Z,9.45
2023-05-23T11:31:45.553Z,10.38
2023-05-23T11:34:32.798Z,8.77
2023-05-23T11:37:20.499Z,10.40
2023-05-23T11:40:32.930Z,9.52
2023-05-23T11:43:19.809Z,9.85
2023-05-23T11:46:09.649Z,9.57
2023-05-23T11:48:55.838Z,9.95
2023-05-23T11:51:41.856Z,10.88
2023-05-23T11:54:28.138Z,9.13
2023-05-23T11:57:14.468Z,9.48
2023-05-23T12:00:00.851Z,9.57
2023-05-23T12:02:50.435Z,9.93
2023-05-23T12:05:37.187Z,9.10
2023-05-23T12:08:23.692Z,8.85
2023-05-23T12:11:10.308Z,8.80
2023-05-23T12:13:56.482Z,8.40
2023-05-23T12:16:48.138Z,9.30
2023-05-23T12:19:36.038Z,9.07
2023-05-23T12:22:25.136Z,8.93
2023-05-23T12:25:11.758Z,8.98
2023-05-23T12:27:58.153Z,8.85
2023-05-23T12:30:44.585Z,7.72
2023-05-23T12:36:23.260Z,7.95
2023-05-23T12:39:09.444Z,8.07
2023-05-23T12:41:58.393Z,9.88
2023-05-23T12:44:45.988Z,8.82
2023-05-23T12:47:32.458Z,9.38
2023-05-23T12:50:18.807Z,9.48
2023-05-23T12:53:04.818Z,9.02
2023-05-23T12:55:50.588Z,9.10
2023-05-23T12:58:36.535Z,8.70
2023-05-23T13:01:22.603Z,8.50
2023-05-23T13:04:09.003Z,8.88
2023-05-23T13:06:55.514Z,8.00
2023-05-23T13:12:27.570Z,7.82
2023-05-23T13:15:13.440Z,7.90
2023-05-23T13:18:00.048Z,8.93
2023-05-23T13:20:46.607Z,7.97
2023-05-23T13:23:33.367Z,8.35
2023-05-23T13:26:19.326Z,8.32
2023-05-23T13:29:06.260Z,8.10
2023-05-23T13:31:53.769Z,7.75
2023-05-23T13:34:39.733Z,7.57
2023-05-23T13:40:20.040Z,8.27
2023-05-23T13:43:06.221Z,7.60
2023-05-23T13:45:52.680Z,7.57
2023-05-23T13:48:38.822Z,7.30
2023-05-23T13:51:24.971Z,7.55
2023-05-23T13:54:11.155Z,7.53
2023-05-23T13:56:57.201Z,7.47
2023-05-23T13:59:43.527Z,7.78
2023-05-23T14:02:32.053Z,7.43
2023-05-23T14:05:19.410Z,7.70
2023-05-23T14:08:06.085Z,8.05
2023-05-23T14:10:52.207Z,7.03
2023-05-23T14:13:38.195Z,8.00
2023-05-23T14:16:24.297Z,7.50
2023-05-23T14:21:56.424Z,6.88
2023-05-23T14:24:42.525Z,7.00
2023-05-23T14:27:28.289Z,7.35
2023-05-23T14:30:15.167Z,6.90
2023-05-23T14:33:01.584Z,6.22
2023-05-23T14:38:34.568Z,6.90
2023-05-23T14:41:21.740Z,6.90
2023-05-23T14:44:07.893Z,6.22
2023-05-23T14:46:54.295Z,6.90
2023-05-23T14:49:40.353Z,6.53
2023-05-23T14:52:26.311Z,6.50
2023-05-23T14:55:12.434Z,6.40
2023-05-23T14:57:58.347Z,7.35
2023-05-23T15:00:46.943Z,6.78
2023-05-23T15:03:33.167Z,7.10
2023-05-23T15:06:19.809Z,6.15
2023-05-23T15:09:06.415Z,6.70
2023-05-23T15:11:52.870Z,6.63
2023-05-23T15:14:39.021Z,6.28
2023-05-23T15:17:26.883Z,6.95
2023-05-23T15:20:13.413Z,6.00
2023-05-23T15:22:59.346Z,7.90
2023-05-23T15:25:49.786Z,6.35
2023-05-23T15:28:36.319Z,6.70
2023-05-23T15:31:22.337Z,6.32
2023-05-23T15:36:56.280Z,6.32
2023-05-23T15:39:42.883Z,6.55
2023-05-23T15:42:28.727Z,5.10
2023-05-23T15:45:15.284Z,6.03
2023-05-23T15:48:01.313Z,6.28
2023-05-23T15:50:47.327Z,5.35
2023-05-23T15:53:40.202Z,5.45
2023-05-23T15:56:34.231Z,5.45
2023-05-23T15:59:20.217Z,5.10
2023-05-23T16:02:07.562Z,5.53
2023-05-23T16:04:53.859Z,5.22
2023-05-23T16:07:39.614Z,5.40
2023-05-23T16:10:25.857Z,5.10
2023-05-23T16:13:12.013Z,4.85
2023-05-23T16:15:58.845Z,4.63
2023-05-23T16:18:45.614Z,4.72
2023-05-23T16:21:32.278Z,5.10
2023-05-23T16:24:19.438Z,5.07
2023-05-23T16:27:05.807Z,4.88
2023-05-23T16:32:37.892Z,3.80
2023-05-23T16:35:24.129Z,3.42
2023-05-23T16:38:10.464Z,4.00
2023-05-23T16:40:56.756Z,3.95
2023-05-23T16:43:42.669Z,3.70
2023-05-23T16:46:28.651Z,3.83
2023-05-23T16:49:14.752Z,4.07
2023-05-23T16:52:00.713Z,3.42
2023-05-23T16:54:46.613Z,3.42
2023-05-23T16:57:33.386Z,3.28
2023-05-23T17:00:20.596Z,3.17
2023-05-23T17:03:07.159Z,3.20
2023-05-23T17:05:53.815Z,3.28
2023-05-23T17:11:27.112Z,2.70
2023-05-23T17:14:13.231Z,2.80
2023-05-23T17:16:59.690Z,3.15
2023-05-23T17:19:46.436Z,2.92
2023-05-23T17:22:32.752Z,2.88
2023-05-23T17:25:19.037Z,2.80
2023-05-23T17:28:05.585Z,2.92
2023-05-23T17:30:53.170Z,2.60
2023-05-23T17:33:39.482Z,2.50
2023-05-23T17:36:26.190Z,2.45
2023-05-23T17:39:12.176Z,2.75
2023-05-23T17:41:58.617Z,2.45
2023-05-23T17:44:44.629Z,2.40
2023-05-23T17:47:31.096Z,2.60
2023-05-23T17:50:17.338Z,2.55
2023-05-23T17:53:04.463Z,2.58
2023-05-23T17:55:50.949Z,2.50
2023-05-23T18:01:25.189Z,2.58
2023-05-23T18:04:11.804Z,2.65
2023-05-23T18:06:58.348Z,2.53
2023-05-23T18:12:34.242Z,2.45
2023-05-23T18:15:20.450Z,2.53
2023-05-23T18:18:06.735Z,2.25
2023-05-23T18:20:53.233Z,2.25
2023-05-23T18:23:39.125Z,2.30
2023-05-23T18:26:25.243Z,2.60
2023-05-23T18:29:11.269Z,2.22
2023-05-23T18:31:57.267Z,2.42
2023-05-23T18:34:43.559Z,2.47
2023-05-23T18:37:29.406Z,2.10
2023-05-23T18:40:16.017Z,2.35
2023-05-23T18:43:02.554Z,2.28
2023-05-23T18:45:48.552Z,2.40
2023-05-23T18:51:22.168Z,2.00
2023-05-23T18:54:08.423Z,2.22
2023-05-23T18:59:40.744Z,2.25
2023-05-23T19:02:27.084Z,2.45
2023-05-23T19:05:13.677Z,2.22
2023-05-23T19:07:59.820Z,2.17
2023-05-23T19:10:45.860Z,2.40
2023-05-23T19:16:19.368Z,2.20
2023-05-23T19:19:06.103Z,2.25
2023-05-23T19:21:52.550Z,2.28
2023-05-23T19:24:38.930Z,2.38
2023-05-23T19:27:24.798Z,2.42
2023-05-23T19:30:11.563Z,2.30
2023-05-23T19:33:01.370Z,2.70
2023-05-23T19:35:47.354Z,2.78
2023-05-23T19:38:33.263Z,3.22
2023-05-23T19:41:20.269Z,2.63
2023-05-23T19:44:06.532Z,2.25
2023-05-23T19:46:52.609Z,2.20
2023-05-23T19:49:38.797Z,2.50
2023-05-23T19:52:24.950Z,2.53
2023-05-23T19:55:11.066Z,2.50
2023-05-23T19:57:57.390Z,3.30
2023-05-23T20:00:44.299Z,2.60
2023-05-23T20:03:30.879Z,2.40
2023-05-23T20:06:17.144Z,2.60
2023-05-23T20:09:03.187Z,2.55
2023-05-23T20:11:49.454Z,2.75
2023-05-23T20:14:35.762Z,2.60
2023-05-23T20:17:22.162Z,2.78
2023-05-23T20:20:08.772Z,2.63
2023-05-23T20:22:54.721Z,2.70
2023-05-23T20:25:41.612Z,2.75
2023-05-23T20:28:27.799Z,2.47
2023-05-23T20:31:13.796Z,2.53
2023-05-23T20:36:46.167Z,2.42
2023-05-23T20:39:32.036Z,2.65
2023-05-23T20:42:18.082Z,2.90
2023-05-23T20:45:07.162Z,2.50
2023-05-23T20:47:53.638Z,3.00
2023-05-23T20:50:40.613Z,2.67
2023-05-23T20:53:31.412Z,2.72
2023-05-23T20:56:18.199Z,2.60
2023-05-23T20:59:04.349Z,2.50
2023-05-23T21:01:50.504Z,3.05
2023-05-23T21:04:36.826Z,2.65
2023-05-23T21:07:23.052Z,2.63
2023-05-23T21:10:09.303Z,2.67
2023-05-23T21:12:55.124Z,3.05
2023-05-23T21:15:41.363Z,2.58
2023-05-23T21:18:27.817Z,2.65
2023-05-23T21:21:14.018Z,2.65
2023-05-23T21:23:59.961Z,2.95
2023-05-23T21:26:45.884Z,2.97
2023-05-23T21:29:31.928Z,2.53
2023-05-23T21:32:18.231Z,3.00
2023-05-23T21:35:04.420Z,2.83
2023-05-23T21:37:50.815Z,3.00
2023-05-23T21:40:37.036Z,2.55
2023-05-23T21:43:22.943Z,3.35
2023-05-23T21:46:09.512Z,2.65
2023-05-23T21:51:42.295Z,2.70
2023-05-23T21:57:15.238Z,2.92
2023-05-23T22:00:01.429Z,2.75
2023-05-23T22:02:48.728Z,2.55
2023-05-23T22:05:35.581Z,2.97
2023-05-23T22:08:21.435Z,2.88
2023-05-23T22:11:10.424Z,2.60
2023-05-23T22:13:56.565Z,2.90
2023-05-23T22:16:42.932Z,2.83
2023-05-23T22:19:30.379Z,2.55
2023-05-23T22:22:16.571Z,2.78
2023-05-23T22:25:02.766Z,3.22
2023-05-23T22:27:48.655Z,2.60
2023-05-23T22:30:34.855Z,2.60
2023-05-23T22:33:21.023Z,2.85
2023-05-23T22:36:07.932Z,2.70
2023-05-23T22:38:54.116Z,2.90
2023-05-23T22:41:40.610Z,2.80
2023-05-23T22:47:14.226Z,2.80
2023-05-23T22:50:00.680Z,2.88
2023-05-23T22:52:48.506Z,2.70
2023-05-23T22:55:35.365Z,2.78
2023-05-23T23:01:07.521Z,2.60
2023-05-23T23:03:55.554Z,2.75
2023-05-23T23:06:43.192Z,2.83
2023-05-23T23:09:29.194Z,2.80
2023-05-23T23:12:15.339Z,2.83
2023-05-23T23:15:01.649Z,2.85
2023-05-23T23:17:48.045Z,2.50
2023-05-23T23:20:34.351Z,2.67
2023-05-23T23:23:20.819Z,3.13
2023-05-23T23:26:07.143Z,2.70
2023-05-23T23:28:52.975Z,2.50
2023-05-23T23:31:38.907Z,2.63
2023-05-23T23:34:26.265Z,2.63
2023-05-23T23:37:12.590Z,2.30
2023-05-23T23:39:58.638Z,2.90
2023-05-23T23:42:44.700Z,2.63
2023-05-23T23:45:30.634Z,2.72
2023-05-23T23:48:17.004Z,2.47
2023-05-23T23:51:03.119Z,2.80
2023-05-23T23:53:51.639Z,2.85
2023-05-23T23:56:39.739Z,2.83
2023-05-23T23:59:25.911Z,2.80
